createdAt,value
2023-04-15T00:03:59.284Z,4.19
2023-04-15T00:09:03.565Z,4.04
2023-04-15T00:14:07.564Z,3.87
2023-04-15T00:19:12.136Z,3.82
2023-04-15T00:24:15.875Z,3.91
2023-04-15T00:29:20.018Z,3.81
2023-04-15T00:34:24.223Z,3.79
2023-04-15T00:39:28.396Z,3.78
2023-04-15T00:44:32.544Z,3.85
2023-04-15T00:49:34.815Z,3.90
2023-04-15T00:54:38.994Z,3.71
2023-04-15T00:59:43.145Z,3.61
2023-04-15T01:09:51.485Z,3.50
2023-04-15T01:14:53.765Z,3.36
2023-04-15T01:19:57.913Z,3.20
2023-04-15T01:25:02.132Z,3.07
2023-04-15T01:30:06.327Z,3.03
2023-04-15T01:35:10.402Z,2.98
2023-04-15T01:40:14.537Z,2.80
2023-04-15T01:45:18.732Z,2.77
2023-04-15T01:50:22.877Z,2.81
2023-04-15T01:55:27.049Z,2.73
2023-04-15T02:00:31.219Z,2.73
2023-04-15T02:05:35.381Z,2.75
2023-04-15T02:10:39.534Z,2.65
2023-04-15T02:15:43.703Z,2.52
2023-04-15T02:20:47.872Z,2.51
2023-04-15T02:25:53.414Z,2.58
2023-04-15T02:30:56.216Z,2.59
2023-04-15T02:36:00.383Z,2.58
2023-04-15T02:41:04.581Z,2.61
2023-04-15T02:46:08.741Z,2.59
2023-04-15T02:51:12.850Z,2.56
2023-04-15T02:56:17.045Z,2.59
2023-04-15T03:01:19.354Z,2.52
2023-04-15T03:06:23.462Z,2.35
2023-04-15T03:11:25.730Z,2.34
2023-04-15T03:16:29.911Z,2.41
2023-04-15T03:21:34.240Z,2.37
2023-04-15T03:26:38.245Z,2.26
2023-04-15T03:31:42.379Z,2.23
2023-04-15T03:36:46.575Z,2.13
2023-04-15T03:41:50.747Z,2.10
2023-04-15T03:46:54.951Z,2.08
2023-04-15T03:51:59.094Z,2.08
2023-04-15T03:57:03.229Z,2.01
2023-04-15T04:02:07.670Z,1.92
2023-04-15T04:07:11.586Z,1.81
2023-04-15T04:12:15.718Z,1.87
2023-04-15T04:17:19.903Z,1.77
2023-04-15T04:22:24.052Z,1.74
2023-04-15T04:27:28.223Z,1.71
2023-04-15T04:32:32.531Z,1.63
2023-04-15T04:37:36.538Z,1.56
2023-04-15T04:42:40.717Z,1.53
2023-04-15T04:47:44.979Z,1.54
2023-04-15T04:52:49.047Z,1.59
2023-04-15T04:57:51.326Z,1.73
2023-04-15T05:02:55.626Z,1.71
2023-04-15T05:07:57.776Z,1.69
2023-04-15T05:13:01.984Z,1.66
2023-04-15T05:18:06.118Z,1.68
2023-04-15T05:23:10.289Z,1.77
2023-04-15T05:28:14.398Z,1.89
2023-04-15T05:33:18.605Z,1.97
2023-04-15T05:38:22.767Z,2.01
2023-04-15T05:43:26.917Z,2.03
2023-04-15T05:48:31.083Z,2.07
2023-04-15T05:53:35.246Z,2.15
2023-04-15T05:58:39.415Z,2.25
2023-04-15T06:03:43.679Z,2.31
2023-04-15T06:08:47.736Z,2.40
2023-04-15T06:13:51.927Z,2.57
2023-04-15T06:18:56.107Z,2.79
2023-04-15T06:24:00.248Z,3.05
2023-04-15T06:29:04.365Z,3.16
2023-04-15T06:34:08.580Z,3.26
2023-04-15T06:39:12.792Z,3.35
2023-04-15T06:44:18.002Z,3.48
2023-04-15T06:49:21.079Z,3.63
2023-04-15T06:54:23.310Z,3.81
2023-04-15T06:59:27.510Z,3.99
2023-04-15T07:04:29.838Z,4.26
2023-04-15T07:09:33.921Z,4.45
2023-04-15T07:14:38.109Z,4.67
2023-04-15T07:19:42.268Z,4.91
2023-04-15T07:24:46.441Z,5.13
2023-04-15T07:29:50.593Z,5.42
2023-04-15T07:34:54.757Z,5.68
2023-04-15T07:39:58.923Z,5.90
2023-04-15T07:45:03.167Z,6.15
2023-04-15T07:50:07.489Z,6.36
2023-04-15T07:55:11.465Z,6.56
2023-04-15T08:00:15.588Z,6.82
2023-04-15T08:05:19.850Z,7.10
2023-04-15T08:10:23.917Z,7.38
2023-04-15T08:15:28.049Z,7.76
2023-04-15T08:20:32.231Z,8.13
2023-04-15T08:25:36.397Z,8.41
2023-04-15T08:30:40.546Z,8.70
2023-04-15T08:35:44.684Z,8.83
2023-04-15T08:40:48.866Z,8.92
2023-04-15T08:45:53.015Z,8.97
2023-04-15T08:50:55.285Z,9.46
2023-04-15T08:55:59.473Z,9.56
2023-04-15T09:01:01.821Z,9.61
2023-04-15T09:06:05.883Z,9.60
2023-04-15T09:11:10.066Z,9.46
2023-04-15T09:16:14.290Z,9.70
2023-04-15T09:21:18.389Z,9.92
2023-04-15T09:26:22.521Z,9.59
2023-04-15T09:36:30.868Z,9.58
2023-04-15T09:41:34.982Z,9.43
2023-04-15T09:46:39.195Z,9.70
2023-04-15T09:51:51.200Z,9.63
2023-04-15T09:56:47.485Z,9.34
2023-04-15T10:01:51.796Z,9.40
2023-04-15T10:06:55.834Z,9.80
2023-04-15T10:11:59.970Z,9.82
2023-04-15T10:17:04.152Z,10.01
2023-04-15T10:22:08.318Z,9.98
2023-04-15T10:27:12.467Z,10.10
2023-04-15T10:32:16.606Z,9.91
2023-04-15T10:37:20.799Z,9.80
2023-04-15T10:42:24.939Z,9.90
2023-04-15T10:47:27.276Z,9.74
2023-04-15T10:52:31.349Z,9.53
2023-04-15T10:57:35.560Z,9.40
2023-04-15T11:02:39.931Z,9.34
2023-04-15T11:07:43.856Z,9.20
2023-04-15T11:12:48.049Z,9.16
2023-04-15T11:17:52.226Z,9.14
2023-04-15T11:23:14.066Z,9.20
2023-04-15T11:28:00.534Z,9.20
2023-04-15T11:33:04.698Z,9.17
2023-04-15T11:38:08.843Z,9.21
2023-04-15T11:43:13.016Z,9.20
2023-04-15T11:48:17.151Z,9.15
2023-04-15T11:53:21.322Z,9.15
2023-04-15T11:58:25.488Z,9.20
2023-04-15T12:03:29.976Z,9.14
2023-04-15T12:08:33.781Z,9.18
2023-04-15T12:13:37.971Z,9.18
2023-04-15T12:18:42.261Z,9.19
2023-04-15T12:23:46.276Z,9.15
2023-04-15T12:28:50.454Z,9.20
2023-04-15T12:33:52.774Z,9.16
2023-04-15T12:38:56.913Z,9.17
2023-04-15T12:43:59.158Z,9.16
2023-04-15T12:49:03.315Z,9.21
2023-04-15T12:54:07.530Z,9.32
2023-04-15T12:59:09.765Z,9.36
2023-04-15T13:04:13.984Z,9.39
2023-04-15T13:09:18.114Z,9.34
2023-04-15T13:14:22.254Z,9.33
2023-04-15T13:19:26.442Z,9.42
2023-04-15T13:24:30.573Z,9.46
2023-04-15T13:29:34.776Z,9.44
2023-04-15T13:34:38.900Z,9.40
2023-04-15T13:39:43.054Z,9.41
2023-04-15T13:44:47.191Z,9.49
2023-04-15T13:49:51.379Z,9.46
2023-04-15T13:55:07.301Z,9.41
2023-04-15T13:59:59.683Z,9.40
2023-04-15T14:05:03.863Z,9.32
2023-04-15T14:10:08.016Z,9.23
2023-04-15T14:15:12.166Z,9.22
2023-04-15T14:20:17.370Z,9.21
2023-04-15T14:25:32.859Z,9.20
2023-04-15T14:30:24.659Z,9.19
2023-04-15T14:35:28.835Z,9.17
2023-04-15T14:40:32.982Z,9.12
2023-04-15T14:45:35.265Z,9.11
2023-04-15T14:50:39.438Z,9.08
2023-04-15T14:55:41.668Z,8.96
2023-04-15T15:00:45.891Z,8.89
2023-04-15T15:05:50.126Z,8.85
2023-04-15T15:10:54.206Z,8.85
2023-04-15T15:15:58.368Z,8.79
2023-04-15T15:21:02.515Z,8.75
2023-04-15T15:26:06.687Z,8.73
2023-04-15T15:31:10.853Z,8.68
2023-04-15T15:36:14.976Z,8.64
2023-04-15T15:41:19.149Z,8.65
2023-04-15T15:46:23.333Z,8.63
2023-04-15T15:51:27.457Z,8.60
2023-04-15T15:56:31.628Z,8.51
2023-04-15T16:01:35.794Z,8.46
2023-04-15T16:06:40.138Z,8.37
2023-04-15T16:11:44.113Z,8.32
2023-04-15T16:16:48.294Z,8.28
2023-04-15T16:21:52.460Z,8.25
2023-04-15T16:26:56.614Z,8.26
2023-04-15T16:32:00.797Z,8.23
2023-04-15T16:37:04.919Z,8.22
2023-04-15T16:42:07.226Z,8.20
2023-04-15T16:47:11.333Z,8.17
2023-04-15T16:52:15.552Z,8.15
2023-04-15T16:57:19.701Z,8.10
2023-04-15T17:02:23.923Z,8.06
2023-04-15T17:07:26.117Z,8.03
2023-04-15T17:12:30.274Z,8.02
2023-04-15T17:17:34.469Z,7.97
2023-04-15T17:22:38.612Z,7.95
2023-04-15T17:27:42.784Z,7.89
2023-04-15T17:32:46.994Z,7.89
2023-04-15T17:37:51.071Z,7.90
2023-04-15T17:42:55.235Z,7.88
2023-04-15T17:47:59.456Z,7.85
2023-04-15T17:53:03.608Z,7.86
2023-04-15T17:58:07.744Z,7.86
2023-04-15T18:03:12.090Z,7.86
2023-04-15T18:08:16.075Z,7.81
2023-04-15T18:13:20.248Z,7.82
2023-04-15T18:18:24.387Z,7.80
2023-04-15T18:23:28.574Z,7.82
2023-04-15T18:28:32.738Z,7.78
2023-04-15T18:33:36.875Z,7.75
2023-04-15T18:38:41.058Z,7.75
2023-04-15T18:43:45.202Z,7.72
2023-04-15T18:48:49.381Z,7.73
2023-04-15T18:53:51.649Z,7.71
2023-04-15T18:59:22.918Z,7.71
2023-04-15T19:03:58.186Z,7.69
2023-04-15T19:09:02.277Z,7.70
2023-04-15T19:14:06.370Z,7.67
2023-04-15T19:19:10.529Z,7.66
2023-04-15T19:24:14.727Z,7.63
2023-04-15T19:29:18.859Z,7.64
2023-04-15T19:34:23.058Z,7.63
2023-04-15T19:39:27.173Z,7.63
2023-04-15T19:44:31.383Z,7.63
2023-04-15T19:49:35.561Z,7.64
2023-04-15T19:54:39.736Z,7.64
2023-04-15T19:59:43.870Z,7.63
2023-04-15T20:04:48.007Z,7.62
2023-04-15T20:09:52.164Z,7.61
2023-04-15T20:14:56.373Z,7.58
2023-04-15T20:20:00.509Z,7.59
2023-04-15T20:25:04.836Z,7.59
2023-04-15T20:30:08.821Z,7.59
2023-04-15T20:35:12.977Z,7.57
2023-04-15T20:40:17.176Z,7.58
2023-04-15T20:45:21.292Z,7.58
2023-04-15T20:50:23.587Z,7.59
2023-04-15T20:55:29.553Z,7.58
2023-04-15T21:00:31.944Z,7.57
2023-04-15T21:05:36.075Z,7.56
2023-04-15T21:10:40.268Z,7.54
2023-04-15T21:15:44.382Z,7.52
2023-04-15T21:20:48.555Z,7.54
2023-04-15T21:25:52.746Z,7.56
2023-04-15T21:30:58.960Z,7.55
2023-04-15T21:36:01.058Z,7.55
2023-04-15T21:41:05.184Z,7.56
2023-04-15T21:46:22.539Z,7.55
2023-04-15T21:56:17.709Z,7.51
2023-04-15T22:01:21.898Z,7.54
2023-04-15T22:06:26.026Z,7.54
2023-04-15T22:11:30.206Z,7.54
2023-04-15T22:16:34.364Z,7.55
2023-04-15T22:21:38.542Z,7.53
2023-04-15T22:26:42.680Z,7.53
2023-04-15T22:31:46.850Z,7.55
2023-04-15T22:36:50.996Z,7.54
2023-04-15T22:41:53.244Z,7.54
2023-04-15T22:46:57.406Z,7.54
2023-04-15T22:51:59.724Z,7.53
2023-04-15T22:57:03.866Z,7.53
2023-04-15T23:02:08.250Z,7.52
2023-04-15T23:07:12.208Z,7.52
2023-04-15T23:12:16.353Z,7.52
2023-04-15T23:17:20.526Z,7.51
2023-04-15T23:22:24.653Z,7.51
2023-04-15T23:27:28.849Z,7.51
2023-04-15T23:32:33.034Z,7.48
2023-04-15T23:37:37.193Z,7.48
2023-04-15T23:42:41.333Z,7.49
2023-04-15T23:47:45.519Z,7.44
2023-04-15T23:52:47.742Z,7.44
2023-04-15T23:57:51.931Z,7.44
